Time;durP1;ratioP1;P1;durP2;ratioP2;P2;SDS_P1;SDS_P2;PMS_P1;PMS_P2;Temp;Humidity;BMP_temperature;BMP_pressure;BME280_temperature;BME280_humidity;BME280_pressure;Samples;Min_cycle;Max_cycle;Signal;HPM_P1;HPM_P2
2021/05/03 00:00:14;;;;;;;5.60;4.90;;;3.30;99.90;;;;;;5095792;28;20215;-73
2021/05/03 00:02:40;;;;;;;8.00;4.85;;;3.40;99.90;;;;;;5096159;28;20164;-73
2021/05/03 00:05:07;;;;;;;8.37;5.47;;;3.20;99.90;;;;;;5095899;28;20702;-72
2021/05/03 00:07:33;;;;;;;6.07;4.45;;;3.30;99.90;;;;;;5095849;28;20218;-71
2021/05/03 00:09:59;;;;;;;5.45;4.95;;;3.40;99.90;;;;;;5095470;28;20206;-73
2021/05/03 00:12:25;;;;;;;5.83;5.13;;;3.40;99.90;;;;;;5095999;28;20531;-72
2021/05/03 00:14:50;;;;;;;5.20;4.68;;;3.50;99.90;;;;;;5094451;28;20180;-73
2021/05/03 00:17:17;;;;;;;9.33;5.77;;;3.50;99.90;;;;;;5095656;28;20295;-71
2021/05/03 00:19:43;;;;;;;8.15;6.60;;;3.50;99.90;;;;;;5095393;28;20213;-72
2021/05/03 00:22:09;;;;;;;6.60;5.10;;;3.40;99.90;;;;;;5095753;28;20197;-72
2021/05/03 00:24:35;;;;;;;8.37;5.37;;;3.20;99.90;;;;;;5095730;28;20640;-73
2021/05/03 00:27:01;;;;;;;5.90;4.67;;;2.80;99.90;;;;;;5095643;28;20402;-73
2021/05/03 00:29:26;;;;;;;6.33;5.73;;;2.80;99.90;;;;;;5095233;28;20193;-73
2021/05/03 00:31:52;;;;;;;4.50;4.10;;;2.90;99.90;;;;;;5095487;28;20563;-72
2021/05/03 00:34:18;;;;;;;7.17;5.50;;;3.00;99.90;;;;;;5095761;28;20633;-73
2021/05/03 00:36:43;;;;;;;7.67;6.27;;;2.90;99.90;;;;;;5095358;28;20185;-72
2021/05/03 00:39:10;;;;;;;8.00;5.67;;;2.90;99.90;;;;;;5095140;28;20533;-71
2021/05/03 00:41:35;;;;;;;7.80;6.47;;;2.90;99.90;;;;;;5095395;28;20442;-73
2021/05/03 00:44:01;;;;;;;7.20;6.60;;;3.00;99.90;;;;;;5095236;28;20208;-73
2021/05/03 00:46:27;;;;;;;9.60;6.38;;;2.90;99.90;;;;;;5095152;28;20176;-73
2021/05/03 00:48:53;;;;;;;5.43;4.97;;;2.90;99.90;;;;;;5095172;28;20194;-72
2021/05/03 00:51:19;;;;;;;4.80;3.97;;;2.80;99.90;;;;;;5095148;28;20173;-73
2021/05/03 00:53:45;;;;;;;7.60;6.03;;;2.80;99.90;;;;;;5095133;28;20168;-72
2021/05/03 00:56:11;;;;;;;18.73;5.63;;;2.90;99.90;;;;;;5094528;28;20510;-72
2021/05/03 00:58:37;;;;;;;7.90;6.85;;;2.80;99.90;;;;;;5095157;28;20430;-72
2021/05/03 01:01:04;;;;;;;6.17;5.57;;;2.90;99.90;;;;;;5094771;28;20179;-72
2021/05/03 01:03:30;;;;;;;6.60;5.10;;;2.90;99.90;;;;;;5095001;28;20413;-73
2021/05/03 01:05:55;;;;;;;5.60;5.20;;;2.90;99.90;;;;;;5094888;28;20178;-72
2021/05/03 01:08:21;;;;;;;7.80;6.10;;;2.70;99.90;;;;;;5094795;28;20397;-72
2021/05/03 01:10:47;;;;;;;8.10;5.87;;;2.70;99.90;;;;;;5094282;28;20178;-73
2021/05/03 01:13:13;;;;;;;7.10;4.93;;;2.70;99.90;;;;;;5094605;28;20408;-72
2021/05/03 01:15:39;;;;;;;11.07;6.47;;;2.70;99.90;;;;;;5094517;28;20169;-72
2021/05/03 01:18:05;;;;;;;7.93;5.50;;;2.80;99.90;;;;;;5094398;28;20290;-72
2021/05/03 01:20:36;;;;;;;4.50;4.10;;;2.80;99.90;;;;;;5094393;28;20183;-72
2021/05/03 01:23:05;;;;;;;6.90;5.88;;;2.90;99.90;;;;;;5094633;28;20524;-72
2021/05/03 01:25:33;;;;;;;5.90;5.00;;;2.80;99.90;;;;;;5094314;28;20626;-73
2021/05/03 01:28:00;;;;;;;7.40;6.25;;;2.80;99.90;;;;;;5094310;28;20180;-73
2021/05/03 01:30:39;;;;;;;5.32;4.82;;;2.90;99.90;;;;;;5094094;28;20186;-73
2021/05/03 01:33:09;;;;;;;8.35;5.82;;;3.00;99.90;;;;;;5094366;28;20711;-73
2021/05/03 01:35:36;;;;;;;6.80;5.60;;;3.00;99.90;;;;;;5094281;28;20229;-72
2021/05/03 01:38:04;;;;;;;7.63;5.80;;;3.00;99.90;;;;;;5094284;28;20214;-71
2021/05/03 01:40:31;;;;;;;7.78;5.32;;;3.10;99.90;;;;;;5093953;28;20211;-72
2021/05/03 01:43:09;;;;;;;7.20;6.35;;;3.00;99.90;;;;;;5094193;28;20164;-73
2021/05/03 01:45:37;;;;;;;9.95;6.55;;;3.10;99.90;;;;;;5094213;28;20165;-72
2021/05/03 01:48:03;;;;;;;6.63;5.90;;;3.10;99.90;;;;;;5094224;28;20184;-72
2021/05/03 01:50:30;;;;;;;7.68;5.65;;;3.10;99.90;;;;;;5093673;28;20188;-73
2021/05/03 01:52:55;;;;;;;8.50;7.35;;;3.10;99.90;;;;;;5093903;28;20183;-72
2021/05/03 01:55:21;;;;;;;9.33;5.73;;;3.00;99.90;;;;;;5093969;28;20532;-73
2021/05/03 01:57:47;;;;;;;7.17;5.60;;;2.90;99.90;;;;;;5093847;28;20470;-73
2021/05/03 02:00:14;;;;;;;7.90;6.10;;;2.90;99.90;;;;;;5093567;28;20514;-72
2021/05/03 02:02:43;;;;;;;7.85;5.90;;;2.80;99.90;;;;;;5093980;28;20162;-72
2021/05/03 02:05:10;;;;;;;8.70;6.25;;;2.50;99.90;;;;;;5093888;28;20175;-71
2021/05/03 02:07:36;;;;;;;7.32;6.70;;;2.40;99.90;;;;;;5092969;28;20548;-73
2021/05/03 02:10:02;;;;;;;6.53;5.60;;;2.30;99.90;;;;;;5093539;28;20210;-73
2021/05/03 02:12:28;;;;;;;11.18;7.53;;;2.50;99.90;;;;;;5093710;28;20171;-73
2021/05/03 02:14:53;;;;;;;10.03;7.50;;;2.60;99.90;;;;;;5093628;28;20251;-73
2021/05/03 02:17:19;;;;;;;6.57;5.93;;;2.50;99.90;;;;;;5093425;28;20537;-72
2021/05/03 02:19:44;;;;;;;11.30;7.50;;;2.50;99.90;;;;;;5093281;28;20211;-72
2021/05/03 02:22:10;;;;;;;8.87;7.27;;;2.60;99.90;;;;;;5093576;28;20206;-73
2021/05/03 02:24:36;;;;;;;9.70;6.07;;;2.60;99.90;;;;;;5093497;28;20633;-71
2021/05/03 02:27:01;;;;;;;8.53;6.90;;;2.70;99.90;;;;;;5093572;28;20178;-72
2021/05/03 02:29:27;;;;;;;7.67;6.03;;;2.60;99.90;;;;;;5093442;28;20225;-72
2021/05/03 02:31:53;;;;;;;8.30;5.70;;;2.60;99.90;;;;;;5093223;28;20198;-73
2021/05/03 02:34:18;;;;;;;9.60;7.23;;;2.50;99.90;;;;;;5093338;28;20177;-72
2021/05/03 02:36:44;;;;;;;7.33;6.20;;;2.40;99.90;;;;;;5093495;28;20199;-72
2021/05/03 02:39:09;;;;;;;8.93;7.57;;;2.40;99.90;;;;;;5093449;28;20182;-73
2021/05/03 02:41:35;;;;;;;13.40;8.67;;;2.30;99.90;;;;;;5093535;28;20162;-73
2021/05/03 02:44:01;;;;;;;9.90;7.00;;;2.20;99.90;;;;;;5093318;28;20175;-73
2021/05/03 02:46:30;;;;;;;8.38;5.97;;;2.30;99.90;;;;;;5093449;28;20276;-72
2021/05/03 02:48:56;;;;;;;10.70;8.30;;;2.40;99.90;;;;;;5093348;28;20199;-72
2021/05/03 02:51:22;;;;;;;9.60;7.97;;;2.50;99.90;;;;;;5093602;28;20174;-72
2021/05/03 02:53:48;;;;;;;12.32;7.75;;;2.60;99.90;;;;;;5093265;28;20175;-72
2021/05/03 02:56:14;;;;;;;7.80;7.07;;;2.60;99.90;;;;;;5093186;28;20173;-72
2021/05/03 02:58:39;;;;;;;8.37;7.57;;;2.50;99.90;;;;;;5092976;28;20462;-73
2021/05/03 03:01:05;;;;;;;12.83;7.80;;;2.60;99.90;;;;;;5093267;28;20412;-73
2021/05/03 03:03:31;;;;;;;9.60;7.40;;;2.60;99.90;;;;;;5093092;28;20173;-73
2021/05/03 03:05:57;;;;;;;8.50;6.93;;;2.60;99.90;;;;;;5093496;28;20171;-72
2021/05/03 03:08:23;;;;;;;10.05;6.07;;;2.50;99.90;;;;;;5093194;28;20235;-72
2021/05/03 03:10:48;;;;;;;8.43;6.43;;;2.60;99.90;;;;;;5092977;28;20219;-72
2021/05/03 03:13:14;;;;;;;8.70;6.37;;;2.50;99.90;;;;;;5093167;28;20157;-73
2021/05/03 03:15:40;;;;;;;10.97;7.57;;;2.40;99.90;;;;;;5093112;28;20508;-73
2021/05/03 03:18:06;;;;;;;8.07;7.27;;;2.40;99.90;;;;;;5093289;28;20193;-72
2021/05/03 03:20:32;;;;;;;9.57;8.27;;;2.40;99.90;;;;;;5096189;28;20190;-71
2021/05/03 03:22:58;;;;;;;9.13;6.33;;;2.40;99.90;;;;;;5096968;28;20250;-73
2021/05/03 03:25:23;;;;;;;11.03;6.10;;;2.40;99.90;;;;;;5095596;28;20178;-72
2021/05/03 03:27:49;;;;;;;9.50;6.33;;;2.40;99.90;;;;;;5096787;28;20658;-72
2021/05/03 03:30:17;;;;;;;9.90;7.57;;;2.20;99.90;;;;;;5096336;28;20925;-72
2021/05/03 03:32:44;;;;;;;8.68;6.13;;;2.00;99.90;;;;;;5096522;28;20666;-73
2021/05/03 03:35:19;;;;;;;10.07;6.50;;;2.10;99.90;;;;;;5096630;28;20170;-72
2021/05/03 03:37:47;;;;;;;11.23;6.65;;;2.20;99.90;;;;;;5096447;28;20673;-72
2021/05/03 03:40:14;;;;;;;12.82;7.85;;;2.20;99.90;;;;;;5096192;28;20235;-73
2021/05/03 03:42:40;;;;;;;9.40;5.93;;;2.20;99.90;;;;;;5096560;28;20619;-71
2021/05/03 03:45:08;;;;;;;13.43;7.03;;;2.30;99.90;;;;;;5096478;28;20315;-72
2021/05/03 03:47:34;;;;;;;9.85;8.07;;;2.30;99.90;;;;;;5096293;28;20402;-72
2021/05/03 03:49:59;;;;;;;11.93;6.43;;;2.30;99.90;;;;;;5096084;28;20200;-72
2021/05/03 03:52:25;;;;;;;8.03;6.70;;;2.20;99.90;;;;;;5096456;28;20420;-73
2021/05/03 03:54:52;;;;;;;8.70;6.30;;;2.20;99.90;;;;;;5095045;28;20444;-72
2021/05/03 03:57:18;;;;;;;10.18;5.63;;;2.30;99.90;;;;;;5095968;28;20451;-72
2021/05/03 03:59:46;;;;;;;11.15;8.10;;;2.20;99.90;;;;;;5096076;28;20246;-72
2021/05/03 04:02:12;;;;;;;9.50;6.13;;;2.10;99.90;;;;;;5096097;28;20167;-73
2021/05/03 04:04:41;;;;;;;6.93;5.70;;;2.00;99.90;;;;;;5096417;28;20607;-72
2021/05/03 04:10:02;;;;;;;10.48;9.00;;;2.00;99.90;;;;;;5095620;28;20220;-73
2021/05/03 04:12:40;;;;;;;6.53;5.68;;;1.80;99.90;;;;;;5095881;28;20166;-72
2021/05/03 04:25:51;;;;;;;13.05;7.03;;;2.30;99.90;;;;;;5095699;28;20180;-72
2021/05/03 04:28:16;;;;;;;9.65;6.75;;;2.40;99.90;;;;;;5095626;28;20651;-73
2021/05/03 04:30:42;;;;;;;10.10;6.90;;;2.20;99.90;;;;;;5094447;28;20200;-73
2021/05/03 04:33:08;;;;;;;7.90;6.23;;;2.30;99.90;;;;;;5095662;28;20547;-71
2021/05/03 04:35:33;;;;;;;14.00;7.77;;;2.30;99.90;;;;;;5095422;28;20566;-71
2021/05/03 04:37:59;;;;;;;7.33;5.23;;;2.40;99.90;;;;;;5095307;28;20286;-73
2021/05/03 04:40:25;;;;;;;12.97;7.13;;;2.50;99.90;;;;;;5095231;28;20599;-71
2021/05/03 04:42:50;;;;;;;9.83;6.93;;;2.70;99.90;;;;;;5095469;28;20185;-72
2021/05/03 04:45:16;;;;;;;10.73;6.30;;;2.80;99.90;;;;;;5095394;28;20526;-72
2021/05/03 04:47:43;;;;;;;7.17;6.13;;;2.80;99.90;;;;;;5095325;28;20173;-73
2021/05/03 04:50:10;;;;;;;9.98;5.45;;;2.90;99.90;;;;;;5094945;28;20196;-72
2021/05/03 04:52:36;;;;;;;7.25;5.15;;;3.00;99.90;;;;;;5094887;28;20679;-73
2021/05/03 04:55:04;;;;;;;8.63;6.35;;;3.10;99.90;;;;;;5095027;28;20214;-72
2021/05/03 04:57:29;;;;;;;9.25;6.63;;;3.20;99.90;;;;;;5094966;28;20204;-72
2021/05/03 04:59:55;;;;;;;6.07;5.07;;;3.40;99.90;;;;;;5094555;28;20191;-71
2021/05/03 05:02:22;;;;;;;7.33;6.53;;;3.90;99.90;;;;;;5094836;28;20276;-71
2021/05/03 05:04:47;;;;;;;5.57;4.97;;;4.20;99.90;;;;;;5094741;28;20229;-71
2021/05/03 05:07:13;;;;;;;9.67;7.83;;;4.60;99.90;;;;;;5094788;28;20169;-73
2021/05/03 05:09:39;;;;;;;6.50;5.90;;;5.10;99.90;;;;;;5094350;28;20216;-71
2021/05/03 05:12:04;;;;;;;6.63;5.93;;;5.90;99.30;;;;;;5094789;28;20169;-71
2021/05/03 05:14:30;;;;;;;6.90;4.93;;;6.90;96.40;;;;;;5094724;28;20175;-73
2021/05/03 05:16:56;;;;;;;6.33;4.30;;;7.90;93.60;;;;;;5094437;28;20460;-71
2021/05/03 05:19:23;;;;;;;4.78;4.00;;;8.80;91.40;;;;;;5094275;28;20792;-73
2021/05/03 05:21:49;;;;;;;4.47;4.07;;;9.80;88.60;;;;;;5094484;28;20193;-72
2021/05/03 05:24:15;;;;;;;5.37;4.87;;;10.80;82.00;;;;;;5094347;28;20193;-74
2021/05/03 05:26:41;;;;;;;5.33;4.87;;;11.60;75.60;;;;;;5094524;28;20480;-73
2021/05/03 05:29:06;;;;;;;4.80;4.30;;;12.30;70.40;;;;;;5094237;28;20260;-74
2021/05/03 05:31:32;;;;;;;5.30;3.80;;;13.10;65.80;;;;;;5092960;28;20171;-73
2021/05/03 05:33:58;;;;;;;6.27;5.03;;;13.90;61.80;;;;;;5094657;28;20172;-73
2021/05/03 05:36:24;;;;;;;4.90;4.40;;;14.80;59.20;;;;;;5094272;28;20243;-73
2021/05/03 05:38:49;;;;;;;5.17;4.67;;;15.70;57.00;;;;;;5094065;28;20761;-73
2021/05/03 05:41:18;;;;;;;5.43;4.90;;;16.50;54.10;;;;;;5094346;28;20172;-73
2021/05/03 05:43:44;;;;;;;7.07;5.00;;;17.40;52.00;;;;;;5093237;28;20177;-72
2021/05/03 05:46:09;;;;;;;4.60;4.20;;;18.20;48.80;;;;;;5094053;28;20521;-72
2021/05/03 05:48:36;;;;;;;6.10;4.87;;;18.90;46.70;;;;;;5094319;28;20637;-72
2021/05/03 05:51:02;;;;;;;4.20;3.90;;;19.50;44.30;;;;;;5093930;28;20172;-73
2021/05/03 05:53:30;;;;;;;4.23;3.93;;;19.80;43.00;;;;;;5092799;28;20414;-73
2021/05/03 05:55:55;;;;;;;4.80;4.40;;;19.90;42.10;;;;;;5093831;28;20422;-73
2021/05/03 05:58:21;;;;;;;4.10;3.67;;;20.30;42.20;;;;;;5093615;28;20453;-73
2021/05/03 06:00:47;;;;;;;5.00;4.23;;;20.70;41.10;;;;;;5093662;28;20179;-73
2021/05/03 06:03:12;;;;;;;5.50;5.10;;;21.40;39.40;;;;;;5093836;28;20170;-72
2021/05/03 06:05:38;;;;;;;6.73;4.10;;;21.70;39.30;;;;;;5093800;28;20169;-72
2021/05/03 06:08:04;;;;;;;5.77;4.33;;;22.30;38.50;;;;;;5093838;28;20173;-73
2021/05/03 06:10:30;;;;;;;4.43;4.03;;;22.40;37.70;;;;;;5093271;28;20205;-74
2021/05/03 06:12:56;;;;;;;5.00;4.30;;;22.90;37.30;;;;;;5093732;28;20399;-74
2021/05/03 06:15:21;;;;;;;4.73;4.20;;;23.10;36.80;;;;;;5093588;28;20588;-73
2021/05/03 06:17:47;;;;;;;5.10;4.70;;;23.20;35.90;;;;;;5093410;28;20573;-72
2021/05/03 06:20:13;;;;;;;4.60;3.70;;;23.40;35.40;;;;;;5093376;28;20183;-73
2021/05/03 06:22:38;;;;;;;4.13;3.67;;;23.60;36.30;;;;;;5093431;28;20579;-72
2021/05/03 06:25:06;;;;;;;4.73;4.30;;;23.80;35.50;;;;;;5093678;28;20173;-73
2021/05/03 06:27:32;;;;;;;4.80;4.40;;;23.80;35.40;;;;;;5093552;28;20637;-73
2021/05/03 06:29:57;;;;;;;5.73;5.10;;;24.10;34.90;;;;;;5093298;28;20430;-73
2021/05/03 06:32:23;;;;;;;4.33;4.00;;;24.40;35.00;;;;;;5093767;28;20168;-73
2021/05/03 06:34:49;;;;;;;4.20;3.87;;;25.00;34.90;;;;;;5093433;28;20267;-74
2021/05/03 06:37:14;;;;;;;3.87;3.57;;;25.60;33.70;;;;;;5093399;28;20203;-74
2021/05/03 06:39:40;;;;;;;4.90;4.50;;;25.70;33.10;;;;;;5093034;28;20268;-74
2021/05/03 06:42:06;;;;;;;5.40;4.90;;;25.20;33.90;;;;;;5093435;28;20188;-73
2021/05/03 06:44:34;;;;;;;4.90;4.40;;;25.10;34.10;;;;;;5093481;28;20626;-75
2021/05/03 06:47:02;;;;;;;6.37;5.13;;;24.20;34.30;;;;;;5093191;28;20165;-73
2021/05/03 06:49:28;;;;;;;4.40;4.00;;;23.70;35.50;;;;;;5092947;28;20517;-74
2021/05/03 06:51:54;;;;;;;4.77;4.20;;;22.90;36.60;;;;;;5093239;28;20494;-74
2021/05/03 06:54:19;;;;;;;5.60;5.10;;;23.70;36.10;;;;;;5094823;28;20175;-74
2021/05/03 06:56:45;;;;;;;4.47;4.10;;;24.30;36.10;;;;;;5097343;28;20190;-73
2021/05/03 06:59:11;;;;;;;4.10;3.80;;;23.40;36.30;;;;;;5096948;28;20223;-74
2021/05/03 07:01:36;;;;;;;6.67;4.33;;;23.60;34.90;;;;;;5097235;28;20169;-73
2021/05/03 07:04:02;;;;;;;4.50;4.10;;;23.30;36.40;;;;;;5097175;28;20203;-74
2021/05/03 07:06:28;;;;;;;4.67;4.27;;;23.60;36.80;;;;;;5097167;28;20169;-72
2021/05/03 07:08:53;;;;;;;6.13;4.23;;;23.60;36.10;;;;;;5096859;28;20565;-74
2021/05/03 07:11:21;;;;;;;3.67;3.37;;;24.00;36.60;;;;;;5095941;28;20178;-74
2021/05/03 07:13:47;;;;;;;4.40;3.57;;;24.30;35.90;;;;;;5097214;28;20217;-72
2021/05/03 07:16:13;;;;;;;3.80;3.47;;;24.30;35.80;;;;;;5097067;28;20493;-72
2021/05/03 07:18:39;;;;;;;4.20;3.90;;;25.00;34.70;;;;;;5096852;28;20168;-74
2021/05/03 07:21:05;;;;;;;4.23;3.90;;;25.20;34.40;;;;;;5097032;28;20164;-74
2021/05/03 07:23:32;;;;;;;3.30;3.10;;;24.90;33.60;;;;;;5096941;28;20402;-72
2021/05/03 07:25:58;;;;;;;3.80;3.50;;;25.60;33.00;;;;;;5096913;28;20452;-73
2021/05/03 07:28:24;;;;;;;4.60;4.20;;;26.70;31.20;;;;;;5096787;28;20409;-72
2021/05/03 07:30:56;;;;;;;3.73;3.40;;;27.80;29.50;;;;;;5096456;28;20489;-73
2021/05/03 07:33:23;;;;;;;4.23;3.20;;;28.50;27.70;;;;;;5096817;28;20639;-74
2021/05/03 07:35:48;;;;;;;3.40;3.10;;;29.00;24.70;;;;;;5096768;28;20409;-73
2021/05/03 07:38:14;;;;;;;4.30;3.50;;;28.60;25.80;;;;;;5096555;28;20454;-73
2021/05/03 07:40:40;;;;;;;3.17;2.90;;;27.50;27.00;;;;;;5096186;28;20650;-73
2021/05/03 07:43:05;;;;;;;3.47;2.90;;;27.10;27.20;;;;;;5096395;28;20517;-74
2021/05/03 07:45:31;;;;;;;3.60;3.10;;;27.50;27.20;;;;;;5095964;28;20169;-72
2021/05/03 07:47:57;;;;;;;2.87;2.60;;;27.30;26.20;;;;;;5095875;28;20197;-73
2021/05/03 07:50:22;;;;;;;2.57;2.37;;;26.40;27.40;;;;;;5096029;28;20600;-74
2021/05/03 07:52:48;;;;;;;4.00;3.20;;;25.20;27.80;;;;;;5095299;28;20169;-73
2021/05/03 07:55:14;;;;;;;2.43;2.23;;;24.60;28.30;;;;;;5096097;28;20665;-73
2021/05/03 07:57:39;;;;;;;2.70;2.50;;;24.70;29.10;;;;;;5095222;28;20211;-72
2021/05/03 08:00:06;;;;;;;3.13;2.83;;;26.40;27.30;;;;;;5095638;28;20953;-72
2021/05/03 08:02:32;;;;;;;3.30;2.50;;;25.70;27.20;;;;;;5096082;28;20234;-72
2021/05/03 08:04:57;;;;;;;4.17;3.27;;;23.90;28.10;;;;;;5094416;28;20399;-72
2021/05/03 08:07:23;;;;;;;2.87;2.67;;;22.80;29.00;;;;;;5095409;28;20512;-72
2021/05/03 08:09:49;;;;;;;2.97;2.30;;;21.30;29.70;;;;;;5094393;28;20204;-73
2021/05/03 08:12:15;;;;;;;2.80;2.60;;;20.10;30.00;;;;;;5093747;28;20639;-74
2021/05/03 08:14:41;;;;;;;3.53;3.23;;;21.50;31.70;;;;;;5094826;28;20259;-72
2021/05/03 08:17:10;;;;;;;3.07;2.87;;;22.50;30.70;;;;;;5095687;28;20868;-74
2021/05/03 08:19:36;;;;;;;3.20;2.47;;;22.60;29.20;;;;;;5095428;28;20188;-73
2021/05/03 08:22:02;;;;;;;2.40;2.20;;;22.20;30.00;;;;;;5094662;28;20402;-73
2021/05/03 08:24:29;;;;;;;3.60;3.30;;;23.40;29.70;;;;;;5095651;28;20405;-72
2021/05/03 08:26:55;;;;;;;3.00;2.20;;;23.20;29.70;;;;;;5094602;28;20409;-72
2021/05/03 08:29:20;;;;;;;3.07;2.60;;;22.20;28.10;;;;;;5095152;28;20427;-72
2021/05/03 08:31:46;;;;;;;2.50;2.30;;;20.40;29.30;;;;;;5093584;28;20465;-73
2021/05/03 08:34:12;;;;;;;3.03;2.83;;;18.60;31.90;;;;;;5095073;28;20686;-73
2021/05/03 08:36:38;;;;;;;2.50;2.30;;;18.70;31.20;;;;;;5095353;28;20559;-73
2021/05/03 08:39:05;;;;;;;2.33;2.13;;;19.00;30.80;;;;;;5092809;28;20204;-73
2021/05/03 08:41:33;;;;;;;2.97;2.70;;;18.90;31.30;;;;;;5095230;28;20808;-72
2021/05/03 08:43:59;;;;;;;2.57;2.37;;;18.50;28.60;;;;;;5094343;28;20413;-72
2021/05/03 08:46:29;;;;;;;2.90;2.70;;;18.70;28.70;;;;;;5095134;28;20395;-73
2021/05/03 08:51:48;;;;;;;2.50;2.30;;;19.70;28.70;;;;;;5094398;28;20401;-73
2021/05/03 08:56:46;;;;;;;2.07;1.77;;;21.40;27.30;;;;;;5094055;28;21111;-73
2021/05/03 08:59:13;;;;;;;1.90;1.80;;;22.20;28.60;;;;;;5094723;28;20437;-73
2021/05/03 09:01:43;;;;;;;2.40;2.30;;;23.50;27.70;;;;;;5094983;28;20179;-72
2021/05/03 09:04:09;;;;;;;2.53;2.33;;;23.80;25.70;;;;;;5094807;28;20474;-72
2021/05/03 09:06:35;;;;;;;2.40;2.20;;;23.20;25.60;;;;;;5094966;28;20431;-74
2021/05/03 09:09:04;;;;;;;2.23;2.00;;;22.70;26.40;;;;;;5094399;28;20944;-74
2021/05/03 09:11:30;;;;;;;2.20;2.00;;;22.50;26.20;;;;;;5095306;28;20204;-74
2021/05/03 09:14:12;;;;;;;2.40;1.63;;;20.90;26.60;;;;;;5094532;28;20922;-72
2021/05/03 09:16:45;;;;;;;2.77;2.57;;;20.70;28.50;;;;;;5094287;28;20447;-72
2021/05/03 09:19:13;;;;;;;2.53;2.37;;;20.90;27.30;;;;;;5094360;28;20451;-72
2021/05/03 09:21:40;;;;;;;1.93;1.83;;;20.00;27.70;;;;;;5094675;28;20395;-73
2021/05/03 09:24:12;;;;;;;2.03;1.87;;;20.20;28.40;;;;;;5094611;28;20404;-72
2021/05/03 09:26:57;;;;;;;2.33;2.13;;;20.50;27.40;;;;;;5094540;28;20411;-72
2021/05/03 09:29:44;;;;;;;2.27;2.07;;;20.10;28.60;;;;;;5094338;28;20868;-73
2021/05/03 09:32:21;;;;;;;2.13;1.93;;;20.30;29.50;;;;;;5094824;28;20408;-74
2021/05/03 09:34:52;;;;;;;2.40;2.20;;;20.80;29.30;;;;;;5094464;28;20797;-74
2021/05/03 09:37:19;;;;;;;3.27;2.90;;;19.30;30.20;;;;;;5094089;28;20455;-73
2021/05/03 09:40:00;;;;;;;3.73;2.47;;;17.90;32.40;;;;;;5093923;28;20416;-72
2021/05/03 09:42:48;;;;;;;4.27;2.40;;;16.60;34.30;;;;;;5094337;28;20392;-73
2021/05/03 09:45:26;;;;;;;1.73;1.63;;;16.50;35.80;;;;;;5094330;28;20857;-73
2021/05/03 09:47:54;;;;;;;2.10;1.90;;;16.90;35.80;;;;;;5094129;28;20397;-73
2021/05/03 09:50:25;;;;;;;1.63;1.53;;;16.50;33.90;;;;;;5093714;28;20991;-72
2021/05/03 09:53:15;;;;;;;1.60;1.50;;;16.10;34.70;;;;;;5094228;28;20399;-73
2021/05/03 09:55:45;;;;;;;2.33;2.20;;;16.10;35.40;;;;;;5094130;28;20762;-74
2021/05/03 09:58:25;;;;;;;2.40;1.73;;;17.00;33.30;;;;;;5093884;28;20442;-73
2021/05/03 10:00:55;;;;;;;4.00;2.03;;;17.20;32.00;;;;;;5093777;28;20794;-73
2021/05/03 10:03:46;;;;;;;3.07;2.77;;;16.80;32.30;;;;;;5093961;28;20400;-73
2021/05/03 10:06:14;;;;;;;2.10;1.80;;;16.30;34.00;;;;;;5093935;28;20530;-73
2021/05/03 10:08:43;;;;;;;2.80;2.20;;;14.60;35.00;;;;;;5093534;28;20406;-73
2021/05/03 10:11:10;;;;;;;1.73;1.63;;;14.10;36.10;;;;;;5093536;28;20485;-72
2021/05/03 10:13:38;;;;;;;2.83;1.90;;;14.20;37.30;;;;;;5093708;28;20925;-74
2021/05/03 10:16:06;;;;;;;3.37;2.27;;;14.20;37.20;;;;;;5093803;28;20903;-72
2021/05/03 10:18:35;;;;;;;2.13;1.80;;;14.60;35.90;;;;;;5093407;28;20464;-73
2021/05/03 10:21:01;;;;;;;1.70;1.60;;;15.00;36.00;;;;;;5093333;28;20440;-73
2021/05/03 10:23:27;;;;;;;1.60;1.50;;;15.10;35.80;;;;;;5093533;28;20402;-73
2021/05/03 10:26:00;;;;;;;3.13;1.73;;;15.30;35.40;;;;;;5093649;28;20462;-72
2021/05/03 10:28:27;;;;;;;4.43;2.37;;;13.80;36.70;;;;;;5092827;28;20395;-73
2021/05/03 10:30:59;;;;;;;1.70;1.60;;;13.80;39.00;;;;;;5093211;28;20406;-74
2021/05/03 10:33:36;;;;;;;1.80;1.70;;;13.70;39.20;;;;;;5093533;28;20394;-73
2021/05/03 10:36:03;;;;;;;1.63;1.53;;;14.40;41.00;;;;;;5093807;28;20760;-73
2021/05/03 10:38:38;;;;;;;2.47;1.90;;;15.40;37.20;;;;;;5093273;28;20447;-73
2021/05/03 10:41:29;;;;;;;1.90;1.80;;;16.20;34.80;;;;;;5093458;28;20754;-73
2021/05/03 10:44:18;;;;;;;2.73;1.60;;;17.10;34.70;;;;;;5093238;28;20399;-72
2021/05/03 10:49:20;;;;;;;1.60;1.50;;;17.00;33.40;;;;;;5093149;28;20426;-73
2021/05/03 10:51:54;;;;;;;2.43;1.63;;;16.70;35.30;;;;;;5093463;28;20576;-73
2021/05/03 10:56:53;;;;;;;2.40;1.83;;;17.10;33.70;;;;;;5093165;28;21035;-72
2021/05/03 10:59:20;;;;;;;1.43;1.37;;;15.80;32.90;;;;;;5093218;28;20775;-74
2021/05/03 11:01:51;;;;;;;2.33;2.13;;;16.20;34.50;;;;;;5093176;28;20961;-72
2021/05/03 11:04:21;;;;;;;1.70;1.60;;;16.40;34.20;;;;;;5093225;28;20447;-73
2021/05/03 11:06:46;;;;;;;1.47;1.40;;;16.00;32.90;;;;;;5093244;28;20438;-73
2021/05/03 11:11:54;;;;;;;1.73;1.63;;;14.50;33.80;;;;;;5093248;28;20205;-73
2021/05/03 11:14:21;;;;;;;1.90;1.60;;;14.20;34.60;;;;;;5093107;28;20410;-73
2021/05/03 11:16:52;;;;;;;2.13;2.03;;;14.50;36.50;;;;;;5092957;28;20452;-72
2021/05/03 11:19:38;;;;;;;1.77;1.67;;;14.50;36.20;;;;;;5092719;28;20414;-73
2021/05/03 11:22:08;;;;;;;1.97;1.87;;;14.70;38.00;;;;;;5093134;28;20401;-73
2021/05/03 11:24:43;;;;;;;2.70;2.47;;;14.70;38.40;;;;;;5093159;28;20405;-73
2021/05/03 11:27:31;;;;;;;1.67;1.57;;;14.90;39.10;;;;;;5093087;28;20408;-73
2021/05/03 11:30:09;;;;;;;1.80;1.70;;;15.10;37.00;;;;;;5092654;28;20423;-72
2021/05/03 11:32:38;;;;;;;1.83;1.73;;;14.90;35.50;;;;;;5093099;28;20401;-73
2021/05/03 11:46:31;;;;;;;2.00;1.33;;;13.80;34.70;;;;;;5096788;28;20482;-72
2021/05/03 11:49:00;;;;;;;2.40;2.20;;;13.30;38.20;;;;;;5095954;28;20501;-73
2021/05/03 11:51:26;;;;;;;2.27;2.07;;;13.30;40.60;;;;;;5096485;28;20834;-72
2021/05/03 11:53:52;;;;;;;1.87;1.70;;;13.60;38.40;;;;;;5096313;28;20395;-74
2021/05/03 11:56:30;;;;;;;2.33;2.20;;;13.50;39.00;;;;;;5096189;28;20766;-72
2021/05/03 11:59:01;;;;;;;2.30;2.10;;;13.80;38.30;;;;;;5096020;28;20181;-72
2021/05/03 12:01:28;;;;;;;2.30;1.90;;;14.00;38.80;;;;;;5095990;28;20468;-74
2021/05/03 12:03:59;;;;;;;2.93;2.23;;;14.30;39.10;;;;;;5096045;28;20445;-73
2021/05/03 12:06:34;;;;;;;1.93;1.70;;;13.80;38.90;;;;;;5096083;28;20399;-73
2021/05/03 12:09:05;;;;;;;2.60;2.17;;;13.40;36.60;;;;;;5095563;28;20457;-73
2021/05/03 12:11:30;;;;;;;1.50;1.40;;;13.40;36.70;;;;;;5094608;28;20917;-73
2021/05/03 12:13:57;;;;;;;3.20;1.90;;;13.20;36.70;;;;;;5096052;28;20399;-72
2021/05/03 12:16:34;;;;;;;1.70;1.60;;;13.70;36.50;;;;;;5095952;28;20294;-72
2021/05/03 12:19:00;;;;;;;1.90;1.70;;;14.10;33.90;;;;;;5095759;28;20421;-72
2021/05/03 12:21:25;;;;;;;1.60;1.50;;;14.10;35.20;;;;;;5095840;28;20767;-72
2021/05/03 12:23:51;;;;;;;2.00;1.90;;;14.20;36.20;;;;;;5095560;28;20169;-73
2021/05/03 12:26:17;;;;;;;2.53;2.10;;;14.30;34.80;;;;;;5095594;28;20161;-72
2021/05/03 12:28:43;;;;;;;2.40;1.93;;;14.20;34.70;;;;;;5095510;28;20395;-74
2021/05/03 12:31:09;;;;;;;1.83;1.73;;;14.40;37.10;;;;;;5095586;28;20395;-72
2021/05/03 12:33:38;;;;;;;1.60;1.50;;;14.40;38.30;;;;;;5095601;28;20650;-72
2021/05/03 12:36:09;;;;;;;2.43;2.23;;;14.80;38.30;;;;;;5095557;28;20456;-74
2021/05/03 12:38:35;;;;;;;1.97;1.87;;;15.00;36.40;;;;;;5095195;28;20478;-72
2021/05/03 12:41:05;;;;;;;2.70;2.50;;;14.60;35.30;;;;;;5095140;28;20403;-73
2021/05/03 12:43:37;;;;;;;2.00;1.90;;;14.10;36.00;;;;;;5095302;28;20885;-72
2021/05/03 12:46:14;;;;;;;2.47;2.27;;;14.10;35.70;;;;;;5095434;28;20464;-72
2021/05/03 12:48:57;;;;;;;2.20;1.97;;;14.00;35.60;;;;;;5095229;28;20395;-73
2021/05/03 13:04:26;;;;;;;1.80;1.70;;;13.00;35.90;;;;;;5094925;28;20421;-73
2021/05/03 13:09:59;;;;;;;2.70;2.50;;;12.60;36.40;;;;;;5094860;28;20447;-72
2021/05/03 13:30:27;;;;;;;2.00;1.90;;;13.30;37.80;;;;;;5070720;28;20431;-72
2021/05/03 13:32:53;;;;;;;2.30;2.20;;;13.50;38.20;;;;;;5094321;28;20955;-72
2021/05/03 13:35:19;;;;;;;1.80;1.70;;;13.90;40.00;;;;;;5094314;28;20403;-74
2021/05/03 13:37:44;;;;;;;2.60;2.40;;;14.30;37.90;;;;;;5094301;28;20821;-73
2021/05/03 13:40:12;;;;;;;2.80;2.60;;;14.40;35.30;;;;;;5093975;28;20415;-73
2021/05/03 13:42:41;;;;;;;2.00;1.80;;;14.10;36.30;;;;;;5094283;28;20165;-73
2021/05/03 13:45:07;;;;;;;5.20;2.00;;;13.90;36.70;;;;;;5094157;28;20403;-72
2021/05/03 13:47:33;;;;;;;2.60;1.87;;;13.90;36.60;;;;;;5092761;28;20411;-72
2021/05/03 13:49:59;;;;;;;2.93;2.70;;;13.40;36.50;;;;;;5093943;28;20434;-73
2021/05/03 13:52:24;;;;;;;2.70;2.03;;;13.10;37.00;;;;;;5094335;28;20565;-73
2021/05/03 13:54:50;;;;;;;3.03;2.60;;;12.90;38.40;;;;;;5094052;28;20293;-73
2021/05/03 13:57:16;;;;;;;1.30;1.20;;;12.90;37.20;;;;;;5093923;28;20197;-72
2021/05/03 13:59:41;;;;;;;1.87;1.77;;;12.90;36.80;;;;;;5093665;28;20681;-73
2021/05/03 14:02:08;;;;;;;2.70;2.50;;;12.70;37.30;;;;;;5093823;28;20165;-73
2021/05/03 14:04:34;;;;;;;4.77;2.43;;;12.20;37.60;;;;;;5092954;28;20551;-72